^^
Station Historical Data
Daily Summary for November 16, 2017 Units:  Metric    English   Both
« Previous Day
Next Day »
Daily Weekly Monthly Yearly Custom
  High: Low: Average:
Temperature: 24.2 °C 8 °C 14.4 °C
Dew Point: 5.1 °C -6.9 °C 1.7 °C
Humidity: 75% 14% 49%
Wind Speed: 24.1km/h 0km/h 8.7km/h
Wind Gust: 29km/h - -
Wind- - SSE
Pressure: 1020.5 hPa 1015.1 hPa -
Precipitation: 0 mm    
Historical Graphs
 
 
Tabular Data for November 16, 2017
Time Temperature Dew Point Pressure Wind Wind Speed Wind Gust Humidity Rainfall Rate (Hourly) solar Conditions
00:00 12.2 °C 4.7 °C 1020.2 hPa SSW 13 km/h 17.7 km/h 60% 0 mm 0.0 W/m2
00:05 12.2 °C 4.9 °C 1020.2 hPa SSW 13 km/h 17.7 km/h 61% 0 mm 0.0 W/m2
00:20 11.9 °C 4.8 °C 1020.2 hPa SSW 14.3 km/h 16.1 km/h 62% 0 mm 0.0 W/m2
00:25 11.9 °C 4.8 °C 1020.2 hPa SSW 9.7 km/h 16.1 km/h 62% 0 mm 0.0 W/m2
00:35 11.8 °C 4.8 °C 1020.2 hPa SSW 11.1 km/h 16.1 km/h 62% 0 mm 0.0 W/m2
00:40 11.8 °C 5 °C 1020.2 hPa SSW 16.3 km/h 16.3 km/h 63% 0 mm 0.0 W/m2
00:50 11.7 °C 4.9 °C 1020.2 hPa SSW 17.7 km/h 19.3 km/h 63% 0 mm 0.0 W/m2
00:55 11.6 °C 5 °C 1019.9 hPa SSW 14.3 km/h 16.1 km/h 64% 0 mm 0.0 W/m2
01:00 11.6 °C 5 °C 1019.9 hPa SSW 7.9 km/h 17.7 km/h 64% 0 mm 0.0 W/m2
01:05 11.5 °C 4.9 °C 1019.9 hPa SSW 13 km/h 14.5 km/h 64% 0 mm 0.0 W/m2
01:15 11.4 °C 5.1 °C 1019.9 hPa SSW 11.1 km/h 16.1 km/h 65% 0 mm 0.0 W/m2
01:20 11.4 °C 5.1 °C 1019.5 hPa SSW 9.7 km/h 16.1 km/h 65% 0 mm 0.0 W/m2
01:25 11.3 °C 5 °C 1019.5 hPa SSW 14.3 km/h 14.5 km/h 65% 0 mm 0.0 W/m2
01:31 11.3 °C 5 °C 1019.5 hPa SSW 11.1 km/h 17.7 km/h 65% 0 mm 0.0 W/m2
01:40 11.2 °C 4.9 °C 1019.5 hPa South 11.1 km/h 16.1 km/h 65% 0 mm 0.0 W/m2
01:46 11.2 °C 5.1 °C 1019.5 hPa South 11.1 km/h 16.1 km/h 66% 0 mm 0.0 W/m2
01:51 11.1 °C 5 °C 1019.5 hPa South 14.3 km/h 17.7 km/h 66% 0 mm 0.0 W/m2
01:56 11.1 °C 5 °C 1019.5 hPa South 11.1 km/h 16.1 km/h 66% 0 mm 0.0 W/m2
02:01 11.1 °C 5 °C 1019.2 hPa South 11.1 km/h 16.1 km/h 66% 0 mm 0.0 W/m2
02:06 11 °C 4.9 °C 1019.2 hPa South 13 km/h 14.5 km/h 66% 0 mm 0.0 W/m2
02:11 10.9 °C 4.8 °C 1019.5 hPa South 7.9 km/h 12.9 km/h 66% 0 mm 0.0 W/m2
02:21 10.8 °C 4.7 °C 1019.5 hPa South 9.7 km/h 9.7 km/h 66% 0 mm 0.0 W/m2
02:31 10.7 °C 4.8 °C 1019.2 hPa South 9.7 km/h 14.5 km/h 67% 0 mm 0.0 W/m2
02:36 10.6 °C 4.7 °C 1019.2 hPa South 7.9 km/h 12.9 km/h 67% 0 mm 0.0 W/m2
02:41 10.6 °C 4.7 °C 1019.2 hPa South 7.9 km/h 11.3 km/h 67% 0 mm 0.0 W/m2
02:46 10.6 °C 4.7 °C 1019.2 hPa South 11.1 km/h 12.9 km/h 67% 0 mm 0.0 W/m2
02:56 10.6 °C 4.7 °C 1019.2 hPa South 7.9 km/h 11.3 km/h 67% 0 mm 0.0 W/m2
03:01 10.5 °C 4.8 °C 1019.2 hPa South 9.7 km/h 12.9 km/h 68% 0 mm 0.0 W/m2
03:06 10.4 °C 4.7 °C 1019.2 hPa South 7.9 km/h 11.3 km/h 68% 0 mm 0.0 W/m2
03:11 10.4 °C 4.7 °C 1019.2 hPa South 7.9 km/h 11.3 km/h 68% 0 mm 0.0 W/m2
03:16 10.3 °C 4.7 °C 1019.2 hPa South 7.9 km/h 11.3 km/h 68% 0 mm 0.0 W/m2
03:22 10.2 °C 4.6 °C 1019.2 hPa South 9.7 km/h 11.3 km/h 68% 0 mm 0.0 W/m2
03:31 10.1 °C 4.7 °C 1019.2 hPa South 11.1 km/h 12.9 km/h 69% 0 mm 0.0 W/m2
03:37 10.1 °C 4.7 °C 1019.5 hPa South 11.1 km/h 11.3 km/h 69% 0 mm 0.0 W/m2
03:46 10 °C 4.6 °C 1019.2 hPa South 7.9 km/h 11.3 km/h 69% 0 mm 0.0 W/m2
03:52 9.9 °C 4.7 °C 1019.5 hPa South 7.9 km/h 11.3 km/h 70% 0 mm 0.0 W/m2
03:57 9.9 °C 4.7 °C 1019.2 hPa South 7.9 km/h 9.7 km/h 70% 0 mm 0.0 W/m2
04:02 9.8 °C 4.6 °C 1019.2 hPa South 11.1 km/h 12.9 km/h 70% 0 mm 0.0 W/m2
04:07 9.8 °C 4.6 °C 1019.2 hPa South 13 km/h 13 km/h 70% 0 mm 0.0 W/m2
04:17 9.8 °C 4.8 °C 1019.2 hPa South 7.9 km/h 11.3 km/h 71% 0 mm 0.0 W/m2
04:22 9.8 °C 4.8 °C 1019.2 hPa South 9.7 km/h 12.9 km/h 71% 0 mm 0.0 W/m2
04:27 9.8 °C 4.8 °C 1019.2 hPa South 6.4 km/h 11.3 km/h 71% 0 mm 0.0 W/m2
04:32 9.8 °C 4.8 °C 1019.2 hPa South 7.9 km/h 11.3 km/h 71% 0 mm 0.0 W/m2
04:37 9.7 °C 4.7 °C 1019.2 hPa South 7.9 km/h 9.7 km/h 71% 0 mm 0.0 W/m2
04:42 9.7 °C 4.7 °C 1019.2 hPa South 7.9 km/h 9.7 km/h 71% 0 mm 0.0 W/m2
04:47 9.7 °C 4.7 °C 1019.2 hPa South 6.4 km/h 11.3 km/h 71% 0 mm 0.0 W/m2
04:52 9.7 °C 4.7 °C 1019.2 hPa South 7.9 km/h 9.7 km/h 71% 0 mm 0.0 W/m2
04:57 9.7 °C 4.7 °C 1019.5 hPa South 6.4 km/h 6.4 km/h 71% 0 mm 0.0 W/m2
05:07 9.6 °C 4.4 °C 1019.5 hPa South 4.7 km/h 4.8 km/h 70% 0 mm 0.0 W/m2
05:17 9.4 °C 4.4 °C 1019.5 hPa South 4.7 km/h 6.4 km/h 71% 0 mm 0.0 W/m2
05:22 9.2 °C 4.2 °C 1019.5 hPa South 4.7 km/h 4.8 km/h 71% 0 mm 0.0 W/m2
05:27 9 °C 4.2 °C 1019.5 hPa South 4.7 km/h 6.4 km/h 72% 0 mm 0.0 W/m2
05:33 8.8 °C 4 °C 1019.5 hPa South 3.2 km/h 4.8 km/h 72% 0 mm 0.0 W/m2
05:43 8.4 °C 3.8 °C 1019.5 hPa South 4.7 km/h 6.4 km/h 73% 0 mm 0.0 W/m2
05:48 8.2 °C 3.6 °C 1019.5 hPa South 3.2 km/h 4.8 km/h 73% 0 mm 0.0 W/m2
05:59 8 °C 3.6 °C 1019.9 hPa South 3.2 km/h 4.8 km/h 74% 0 mm 9.0 W/m2
06:05 8 °C 3.8 °C 1019.9 hPa Calm     75% 0 mm 11.0 W/m2
06:15 8.1 °C 3.9 °C 1019.9 hPa Calm     75% 0 mm 23.0 W/m2
06:26 8.4 °C 4.2 °C 1020.2 hPa Calm     75% 0 mm 49.0 W/m2
06:40 9.3 °C 4.7 °C 1020.2 hPa Calm     73% 0 mm 102.0 W/m2
06:55 11.1 °C 5 °C 1020.2 hPa Calm     66% 0 mm 163.0 W/m2
07:05 12.1 °C 5 °C 1020.2 hPa South 11.1 km/h 12.9 km/h 62% 0 mm 206.0 W/m2
07:46 13.7 °C 5.1 °C 1020.2 hPa ESE 11.1 km/h 24.1 km/h 56% 0 mm 329.0 W/m2
08:01 14.2 °C 5 °C 1020.5 hPa ESE 19.5 km/h 22.5 km/h 54% 0 mm 380.0 W/m2
08:15 14.7 °C 4.9 °C 1020.5 hPa East 20.9 km/h 22.5 km/h 52% 0 mm 432.0 W/m2
08:24 15.1 °C 5 °C 1020.5 hPa East 24.1 km/h 24.1 km/h 51% 0 mm 464.0 W/m2
09:26 16.8 °C 3.8 °C 1020.5 hPa ESE 1.4 km/h 11.3 km/h 42% 0 mm 661.0 W/m2
09:56 17.4 °C 2.6 °C 1020.2 hPa East 11.1 km/h 12.9 km/h 37% 0 mm 744.0 W/m2
10:09 17.7 °C 2.4 °C 1020.2 hPa Calm   9.7 km/h 36% 0 mm 775.0 W/m2
10:23 18.4 °C 2.3 °C 1020.2 hPa East 6.4 km/h 12.9 km/h 34% 0 mm 810.0 W/m2
10:47 18.9 °C 1.8 °C 1019.5 hPa East 7.9 km/h 14.5 km/h 32% 0 mm 861.0 W/m2
11:13 19.7 °C 1.6 °C 1019.2 hPa East 16.3 km/h 16.3 km/h 30% 0 mm 909.0 W/m2
11:24 20.4 °C 1.3 °C 1019.2 hPa Calm   1.6 km/h 28% 0 mm 921.0 W/m2
11:54 20.9 °C 0.7 °C 1018.8 hPa East 9.7 km/h 9.7 km/h 26% 0 mm 954.0 W/m2
12:10 21.4 °C 0 °C 1018.8 hPa ENE 6.4 km/h 12.9 km/h 24% 0 mm 965.0 W/m2
13:11 21.9 °C -0.8 °C 1018.2 hPa Calm   11.3 km/h 22% 0 mm 965.0 W/m2
13:42 22.7 °C -1.4 °C 1017.5 hPa ESE 17.7 km/h 27.4 km/h 20% 0 mm 942.0 W/m2
14:03 22.7 °C -0.8 °C 1017.5 hPa ESE 16.3 km/h 17.7 km/h 21% 0 mm 919.0 W/m2
14:23 23.2 °C -2.4 °C 1016.8 hPa ESE 19.5 km/h 22.5 km/h 18% 0 mm 888.0 W/m2
14:56 23.3 °C -1.6 °C 1016.5 hPa Calm     19% 0 mm 814.0 W/m2
15:26 23.6 °C -2.1 °C 1015.8 hPa SSE 19.5 km/h 29 km/h 18% 0 mm 740.0 W/m2
15:56 23.7 °C -2.8 °C 1015.8 hPa SE 7.9 km/h 17.7 km/h 17% 0 mm 656.0 W/m2
16:11 23.9 °C -3.5 °C 1015.1 hPa SE 9.7 km/h 11.3 km/h 16% 0 mm 615.0 W/m2
16:26 23.9 °C -2.6 °C 1015.1 hPa SE 11.1 km/h 14.5 km/h 17% 0 mm 566.0 W/m2
16:42 24.2 °C -4.1 °C 1015.1 hPa ESE 16.3 km/h 17.7 km/h 15% 0 mm 517.0 W/m2
17:12 23.6 °C -3.7 °C 1015.1 hPa ESE 16.3 km/h 22.5 km/h 16% 0 mm 413.0 W/m2
17:59 23.4 °C -4.7 °C 1015.1 hPa SE 11.1 km/h 17.7 km/h 15% 0 mm 258.0 W/m2
18:18 23.2 °C -5.8 °C 1015.1 hPa SE 16.3 km/h 19.3 km/h 14% 0 mm 178.0 W/m2
18:32 23.1 °C -5.9 °C 1015.1 hPa SE 9.7 km/h 20.9 km/h 14% 0 mm 114.0 W/m2
18:48 22.8 °C -6.1 °C 1015.5 hPa SE 17.7 km/h 22.5 km/h 14% 0 mm 60.0 W/m2
19:03 22.5 °C -6.3 °C 1015.5 hPa SE 9.7 km/h 17.7 km/h 14% 0 mm 14.0 W/m2
19:19 22.1 °C -6.7 °C 1015.8 hPa SE 17.7 km/h 19.3 km/h 14% 0 mm 7.0 W/m2
19:34 21.8 °C -6.9 °C 1016.1 hPa SE 14.3 km/h 16.1 km/h 14% 0 mm 0.0 W/m2
20:45 20.5 °C -6.2 °C 1016.8 hPa SE 11.1 km/h 12.9 km/h 16% 0 mm 0.0 W/m2
21:14 20.1 °C -5.7 °C 1016.8 hPa SE 9.7 km/h 9.7 km/h 17% 0 mm 0.0 W/m2
21:29 19.8 °C -6 °C 1016.8 hPa SE 6.4 km/h 8 km/h 17% 0 mm 0.0 W/m2
21:44 19.4 °C -5.5 °C 1016.8 hPa SE 3.2 km/h 4.8 km/h 18% 0 mm 0.0 W/m2
22:01 18.9 °C -5.2 °C 1016.8 hPa Calm     19% 0 mm 0.0 W/m2
22:11 18.3 °C -5.1 °C 1017.2 hPa Calm     20% 0 mm 0.0 W/m2
22:29 18.4 °C -4.3 °C 1017.2 hPa SE 4.7 km/h 9.7 km/h 21% 0 mm 0.0 W/m2
23:19 17.4 °C -4.5 °C 1017.2 hPa Calm     22% 0 mm 0.0 W/m2
23:24 17.2 °C -4.7 °C 1017.2 hPa Calm     22% 0 mm 0.0 W/m2
23:29 16.9 °C -4.4 °C 1017.2 hPa Calm     23% 0 mm 0.0 W/m2
23:34 16.7 °C -4.5 °C 1017.2 hPa Calm     23% 0 mm 0.0 W/m2
23:39 16.6 °C -4.1 °C 1017.5 hPa Calm     24% 0 mm 0.0 W/m2
23:45 16.6 °C -4.1 °C 1017.2 hPa Calm     24% 0 mm 0.0 W/m2
23:50 16.4 °C -4.2 °C 1017.5 hPa Calm     24% 0 mm 0.0 W/m2
23:56 16.4 °C -4.2 °C 1017.5 hPa Calm     24% 0 mm 0.0 W/m2
Canyon Roadhouse, Fishriver Canyon, Namibia
Compliments of Weather Underground - 2.25 mb